Terminal Aerodrome Forecast
Issued by NWS

Current Version | Previous Version | Text Only | Print | Product List | Glossary On
Versions: 1 2 3 4 5 6 7 8 9 10 11 12 13
000
FTUS43 KGRB 032331
TAFMTW
TAF
KMTW 032331Z 0400/0424 21005KT P6SM SCT100
     FM040200 21005KT P6SM SCT050 BKN100
     FM041000 26003KT P6SM SCT040 SCT120
      TEMPO 0410/0412 4SM BR
     FM041500 05004KT P6SM SCT040
     FM041900 11007KT P6SM SCT090=

USA.gov is the U.S. government's official web portal to all federal, state and local government web resources and services.